Sacramento, CA (95823)

6:26 PM PST on November 22, 2014 (GMT -0800)
Bruceville/Jacinto/Dartford | Change Station
CLOSE
Current Station
Personal Weather Station
Location: Sacramento, CA
Elevation: 25 ft
Nearby Weather Stations

Elev 25 ft 38.45 °N, 121.42 °W | Updated 13 seconds ago

Mostly Cloudy
Mostly Cloudy
55.6 °F
Feels Like 55.6 °F
N
0.0
Wind Variable Wind from NW
Gusts 0.0 mph

Today
High -- | Low -- °F
--% Chance of Precip.
Yesterday
High -- | Low -- °F
Precip. -- in
6:55 AM 4:48 PM
New Moon, 0% visible
Pressure 30.17 in
Visibility 9.0 miles
Clouds Few 1100 ft
Dew Point 53 °F
Humidity 91%
Rainfall 0.18 in
Snow Depth Not available.
UV 0 out of 12
Pollen .40 out of 12
Air Quality Not available.
Flu Activity Not available.
SPECI KSAC 230217Z 00000KT 9SM FEW011 14/12 A3017 RMK AO2

More Conditions Fewer Conditions

Pressure 30.17 in
Visibility 9.0 miles
Clouds Few 1100 ft
Dew Point 53 °F
Humidity 91%
Rainfall 0.18 in
Snow Depth Not available.
UV 0 out of 12
Pollen .40 out of 12
Air Quality Not available.
Flu Activity Not available.
SPECI KSAC 230217Z 00000KT 9SM FEW011 14/12 A3017 RMK AO2

More Conditions Fewer Conditions

10-Day Weather Forecast

Almanac

Astronomy

Nov. 22, 2014 Rise Set
Actual Time
Civil Twilight
Nautical Twilight
Astronomical Twilight
Moon
Length of Visible Light
Length of Day
Tomorrow will be .
, % of the Moon is Illuminated

Today's Extremes

State Highs State Lows

Community

WunderPhotos

Upload Photos

1,772,973 photos uploaded!

WunderBlogs® & News

Nearby

Air Quality

  Air Quality AQ Index Pollutant
Not available.

Snow Depth

Station Depth Elevation

Earthquake Activity

City Distance Mag. Time & Date
Minimum magnitude displayed is 2.5.

Coastal Water Temperatures

Place Temperature

Nearby Weather Stations